Time;durP1;ratioP1;P1;durP2;ratioP2;P2;SDS_P1;SDS_P2;PMS_P1;PMS_P2;Temp;Humidity;BMP_temperature;BMP_pressure;BME280_temperature;BME280_humidity;BME280_pressure;Samples;Min_cycle;Max_cycle;Signal;HPM_P1;HPM_P2
2021/08/29 00:02:04;;;;;;;5.60;5.10;;;11.40;99.90;;;;;;5052096;28;20206;-80
2021/08/29 00:04:29;;;;;;;5.30;4.37;;;11.10;99.90;;;;;;5037295;28;20671;-80
2021/08/29 00:06:55;;;;;;;9.20;4.83;;;11.10;99.90;;;;;;5052026;28;20185;-80
2021/08/29 00:09:21;;;;;;;6.60;5.00;;;11.50;99.90;;;;;;5044098;28;20205;-80
2021/08/29 00:11:46;;;;;;;4.80;4.30;;;11.30;99.90;;;;;;5032248;28;20663;-80
2021/08/29 00:14:12;;;;;;;4.50;4.10;;;11.40;99.90;;;;;;5031831;28;20187;-79
2021/08/29 00:16:37;;;;;;;4.97;4.20;;;11.40;99.90;;;;;;5031699;28;20176;-79
2021/08/29 00:19:03;;;;;;;4.10;3.70;;;11.10;99.90;;;;;;5032575;28;20179;-80
2021/08/29 00:21:29;;;;;;;4.82;4.43;;;11.40;99.90;;;;;;5044021;28;20597;-79
2021/08/29 00:23:55;;;;;;;4.73;4.23;;;11.20;99.90;;;;;;5037013;28;20224;-80
2021/08/29 00:26:21;;;;;;;6.40;4.60;;;11.40;99.90;;;;;;5043339;28;20179;-80
2021/08/29 00:28:46;;;;;;;4.50;4.10;;;11.20;99.90;;;;;;5031812;28;20182;-79
2021/08/29 00:31:12;;;;;;;5.30;4.80;;;11.30;99.90;;;;;;5039509;28;20807;-79
2021/08/29 00:33:37;;;;;;;5.83;5.27;;;11.20;99.90;;;;;;5031706;28;20506;-80
2021/08/29 00:36:03;;;;;;;5.97;5.40;;;11.30;99.90;;;;;;5032177;28;20187;-80
2021/08/29 00:38:29;;;;;;;6.80;5.33;;;11.40;99.90;;;;;;5031517;28;20193;-80
2021/08/29 00:40:54;;;;;;;5.10;4.70;;;11.50;99.90;;;;;;5046864;28;20713;-80
2021/08/29 00:43:20;;;;;;;7.73;5.90;;;11.40;99.90;;;;;;5041047;28;20205;-80
2021/08/29 00:45:46;;;;;;;6.10;5.60;;;11.70;99.90;;;;;;5031280;28;20218;-80
2021/08/29 00:48:13;;;;;;;5.50;4.80;;;11.50;99.90;;;;;;5031153;28;20239;-80
2021/08/29 00:50:42;;;;;;;6.30;5.40;;;11.50;99.90;;;;;;5045265;28;20437;-80
2021/08/29 00:53:08;;;;;;;5.20;4.70;;;11.60;99.90;;;;;;5051490;28;20553;-80
2021/08/29 00:55:37;;;;;;;6.37;5.70;;;11.80;99.90;;;;;;5050742;28;20205;-79
2021/08/29 00:58:03;;;;;;;5.57;5.00;;;11.60;99.90;;;;;;5056512;28;20665;-79
2021/08/29 01:00:30;;;;;;;6.05;4.40;;;11.60;99.90;;;;;;5070881;28;20191;-79
2021/08/29 01:02:58;;;;;;;5.28;4.78;;;11.50;99.90;;;;;;5070184;28;20219;-79
2021/08/29 01:05:30;;;;;;;4.45;4.05;;;11.70;99.90;;;;;;5049454;28;20209;-79
2021/08/29 01:08:09;;;;;;;4.32;4.03;;;11.90;99.90;;;;;;5051968;28;20191;-79
2021/08/29 01:10:42;;;;;;;5.35;4.85;;;11.60;99.90;;;;;;5033845;28;20702;-79
2021/08/29 01:13:22;;;;;;;4.80;4.40;;;11.80;99.90;;;;;;5066608;28;20241;-79
2021/08/29 01:15:51;;;;;;;5.93;4.55;;;11.90;99.90;;;;;;5070777;28;20210;-80
2021/08/29 01:18:20;;;;;;;4.80;4.30;;;11.80;99.90;;;;;;5070456;28;20193;-80
2021/08/29 01:20:58;;;;;;;8.27;5.20;;;11.70;99.90;;;;;;5051526;28;20822;-80
2021/08/29 01:23:25;;;;;;;4.75;4.35;;;11.90;99.90;;;;;;5067253;28;20213;-81
2021/08/29 01:26:05;;;;;;;4.63;4.15;;;11.70;99.90;;;;;;5070711;28;20259;-81
2021/08/29 01:28:46;;;;;;;5.22;4.70;;;11.60;99.90;;;;;;5070404;28;20174;-81
2021/08/29 01:31:11;;;;;;;5.22;4.72;;;11.80;99.90;;;;;;5070299;28;20187;-82
2021/08/29 01:33:37;;;;;;;5.47;4.97;;;11.70;99.90;;;;;;5033609;28;20194;-83
2021/08/29 01:36:03;;;;;;;6.15;5.20;;;11.70;99.90;;;;;;5050146;28;20201;-82
2021/08/29 01:38:29;;;;;;;7.90;5.20;;;11.80;99.90;;;;;;5050431;28;20660;-82
2021/08/29 01:40:55;;;;;;;9.53;5.70;;;11.70;99.90;;;;;;5050087;28;21211;-82
2021/08/29 01:43:21;;;;;;;5.97;5.37;;;11.50;99.90;;;;;;5067936;28;20504;-82
2021/08/29 01:45:47;;;;;;;5.73;4.57;;;11.70;99.90;;;;;;5070123;28;20441;-82
2021/08/29 01:48:13;;;;;;;6.00;5.40;;;11.50;99.90;;;;;;5069894;28;20468;-82
2021/08/29 01:50:41;;;;;;;5.57;4.50;;;11.60;99.90;;;;;;5069952;28;20781;-82
2021/08/29 01:53:06;;;;;;;5.32;4.82;;;11.80;99.90;;;;;;5069127;28;20184;-82
2021/08/29 01:55:32;;;;;;;5.33;4.80;;;11.80;99.90;;;;;;5069427;28;20198;-82
2021/08/29 01:57:57;;;;;;;5.87;5.27;;;11.70;99.90;;;;;;5050424;28;20241;-82
2021/08/29 02:00:23;;;;;;;6.20;4.83;;;11.60;99.90;;;;;;5049955;28;20221;-82
2021/08/29 02:02:49;;;;;;;7.03;5.07;;;11.70;99.90;;;;;;5049917;28;20209;-82
2021/08/29 02:05:14;;;;;;;5.40;4.90;;;11.40;99.90;;;;;;5049603;28;20240;-82
2021/08/29 02:07:53;;;;;;;5.70;4.27;;;11.70;99.90;;;;;;5064542;28;20705;-82
2021/08/29 02:10:24;;;;;;;5.43;4.72;;;11.80;99.90;;;;;;5069152;28;20657;-82
2021/08/29 02:12:59;;;;;;;6.95;5.80;;;11.70;99.90;;;;;;5069798;28;20203;-81
2021/08/29 02:15:39;;;;;;;5.72;5.15;;;11.60;99.90;;;;;;5068553;28;20183;-81
2021/08/29 02:18:11;;;;;;;6.38;5.68;;;11.50;99.90;;;;;;5067939;28;20201;-82
2021/08/29 02:20:38;;;;;;;6.32;5.30;;;11.50;99.90;;;;;;5051371;28;20180;-81
2021/08/29 02:23:04;;;;;;;5.47;4.97;;;11.60;99.90;;;;;;5049289;28;20217;-81
2021/08/29 02:25:30;;;;;;;6.25;4.88;;;11.90;99.90;;;;;;5050714;28;20200;-81
2021/08/29 02:27:56;;;;;;;7.03;5.75;;;11.80;99.90;;;;;;5049268;28;20189;-81
2021/08/29 02:30:22;;;;;;;6.63;5.80;;;11.70;99.90;;;;;;5049625;28;20194;-82
2021/08/29 02:32:52;;;;;;;6.17;5.43;;;11.80;99.90;;;;;;5049044;28;20471;-81
2021/08/29 02:35:18;;;;;;;6.38;5.15;;;11.90;99.90;;;;;;5049101;28;20432;-81
2021/08/29 02:37:44;;;;;;;5.20;4.70;;;11.70;99.90;;;;;;5064253;28;20197;-81
2021/08/29 02:40:11;;;;;;;5.53;4.88;;;11.50;99.90;;;;;;5050870;28;20669;-80
2021/08/29 02:42:39;;;;;;;6.55;5.10;;;11.80;99.90;;;;;;5068454;28;20210;-80
2021/08/29 02:45:07;;;;;;;5.13;4.68;;;12.00;99.90;;;;;;5068915;28;20230;-80
2021/08/29 02:47:33;;;;;;;5.55;4.85;;;11.70;99.90;;;;;;5054673;28;20602;-79
2021/08/29 02:49:59;;;;;;;5.10;4.60;;;11.80;99.90;;;;;;5048635;28;20188;-79
2021/08/29 02:52:25;;;;;;;5.77;4.60;;;11.90;99.90;;;;;;5049014;28;20934;-79
2021/08/29 02:54:52;;;;;;;6.00;5.40;;;11.80;99.90;;;;;;5052998;28;20575;-79
2021/08/29 02:57:18;;;;;;;6.72;5.15;;;11.90;99.90;;;;;;5065397;28;20908;-79
2021/08/29 02:59:44;;;;;;;5.45;4.95;;;11.80;99.90;;;;;;5051449;28;20290;-78
2021/08/29 03:02:11;;;;;;;5.77;5.03;;;11.70;99.90;;;;;;5068924;28;20241;-78
2021/08/29 03:04:37;;;;;;;6.88;5.00;;;11.70;99.90;;;;;;5065949;28;20439;-78
2021/08/29 03:07:03;;;;;;;6.33;4.90;;;11.80;99.90;;;;;;5048263;28;20665;-78
2021/08/29 03:09:33;;;;;;;5.70;5.00;;;11.80;99.90;;;;;;5051125;28;20444;-78
2021/08/29 03:12:06;;;;;;;5.55;5.07;;;11.90;99.90;;;;;;5068282;28;20190;-78
2021/08/29 03:14:34;;;;;;;5.45;4.28;;;11.80;99.90;;;;;;5066698;28;20190;-77
2021/08/29 03:17:00;;;;;;;7.30;4.85;;;11.80;99.90;;;;;;5048276;28;20279;-77
2021/08/29 03:19:26;;;;;;;5.32;4.78;;;11.90;99.90;;;;;;5048622;28;20185;-77
2021/08/29 03:21:52;;;;;;;5.43;4.90;;;11.80;99.90;;;;;;5047543;28;20663;-77
2021/08/29 03:24:18;;;;;;;4.93;4.18;;;12.10;99.90;;;;;;5047763;28;20438;-77
2021/08/29 03:26:44;;;;;;;5.80;5.30;;;11.70;99.90;;;;;;5052442;28;20276;-77
2021/08/29 03:29:11;;;;;;;4.97;4.27;;;11.80;99.90;;;;;;5047950;28;20189;-77
2021/08/29 03:31:36;;;;;;;6.43;4.57;;;11.80;99.90;;;;;;5048010;28;20514;-77
2021/08/29 03:34:05;;;;;;;5.27;4.77;;;11.80;99.90;;;;;;5048053;28;20203;-77
2021/08/29 03:36:32;;;;;;;5.57;4.75;;;11.90;99.90;;;;;;5054795;28;20766;-77
2021/08/29 03:39:00;;;;;;;5.32;4.82;;;11.80;99.90;;;;;;5047928;28;20195;-77
2021/08/29 03:41:28;;;;;;;4.78;4.30;;;11.90;99.90;;;;;;5047993;28;20198;-77
2021/08/29 03:43:54;;;;;;;5.75;5.25;;;12.00;99.90;;;;;;5047623;28;20231;-77
2021/08/29 03:46:21;;;;;;;7.00;5.13;;;11.90;99.90;;;;;;5051065;28;20270;-77
2021/08/29 03:48:47;;;;;;;4.68;4.28;;;11.90;99.90;;;;;;5047657;28;20229;-77
2021/08/29 03:51:15;;;;;;;5.67;4.57;;;11.80;99.90;;;;;;5047737;28;20201;-77
2021/08/29 03:53:41;;;;;;;5.07;4.57;;;11.60;99.90;;;;;;5040287;28;20437;-76
2021/08/29 03:56:07;;;;;;;4.65;4.25;;;11.80;99.90;;;;;;5053377;28;20279;-77
2021/08/29 03:58:35;;;;;;;4.85;4.40;;;12.00;99.90;;;;;;5047637;28;20367;-77
2021/08/29 04:01:01;;;;;;;5.82;5.07;;;11.90;99.90;;;;;;5047715;28;20187;-77
2021/08/29 04:03:27;;;;;;;5.90;5.30;;;11.80;99.90;;;;;;5047587;28;20240;-77
2021/08/29 04:05:54;;;;;;;6.07;5.47;;;11.70;99.90;;;;;;5053545;28;20586;-77
2021/08/29 04:08:27;;;;;;;5.05;4.57;;;12.00;99.90;;;;;;5045116;28;20473;-77
2021/08/29 04:10:53;;;;;;;6.63;5.30;;;11.80;99.90;;;;;;5047639;28;20185;-77
2021/08/29 04:13:20;;;;;;;5.22;4.57;;;11.80;99.90;;;;;;5054983;28;20225;-77
2021/08/29 04:15:46;;;;;;;5.80;5.15;;;11.80;99.90;;;;;;5046351;28;20183;-77
2021/08/29 04:18:13;;;;;;;5.63;5.13;;;11.90;99.90;;;;;;5049380;28;20282;-76
2021/08/29 04:20:39;;;;;;;5.53;4.90;;;11.80;99.90;;;;;;5047245;28;20199;-76
2021/08/29 04:23:05;;;;;;;14.53;6.90;;;11.90;99.90;;;;;;5047645;28;20624;-76
2021/08/29 04:25:31;;;;;;;6.00;5.40;;;11.70;99.90;;;;;;5053965;28;20186;-77
2021/08/29 04:27:57;;;;;;;7.28;4.78;;;12.10;99.90;;;;;;5051479;28;20230;-77
2021/08/29 04:30:23;;;;;;;5.40;4.90;;;11.80;99.90;;;;;;5048420;28;20551;-78
2021/08/29 04:32:50;;;;;;;6.47;5.60;;;12.30;99.90;;;;;;5047345;28;20191;-77
2021/08/29 04:35:16;;;;;;;7.35;5.93;;;12.00;99.90;;;;;;5052808;28;20443;-77
2021/08/29 04:37:42;;;;;;;10.10;8.80;;;11.70;99.90;;;;;;5048633;28;20277;-77
2021/08/29 04:40:08;;;;;;;13.40;8.10;;;11.90;99.90;;;;;;5050916;28;20188;-77
2021/08/29 04:42:33;;;;;;;7.90;6.97;;;11.90;99.90;;;;;;5050414;28;20251;-77
2021/08/29 04:44:59;;;;;;;9.47;7.00;;;11.90;99.90;;;;;;5050691;28;20911;-77
2021/08/29 04:47:24;;;;;;;9.33;6.87;;;12.10;99.90;;;;;;5050640;28;20182;-77
2021/08/29 04:49:50;;;;;;;7.10;6.40;;;11.90;99.90;;;;;;5050417;28;20242;-77
2021/08/29 04:52:16;;;;;;;9.87;6.90;;;12.00;99.90;;;;;;5050874;28;20240;-77
2021/08/29 04:54:41;;;;;;;8.10;7.30;;;12.10;99.90;;;;;;5054566;28;20234;-77
2021/08/29 04:57:07;;;;;;;8.47;7.67;;;12.10;99.90;;;;;;5050798;28;20284;-77
2021/08/29 04:59:32;;;;;;;8.80;7.90;;;12.10;99.90;;;;;;5050308;28;20647;-77
2021/08/29 05:01:58;;;;;;;10.90;8.60;;;11.90;99.90;;;;;;5051654;28;20189;-77
2021/08/29 05:04:23;;;;;;;11.90;9.40;;;12.30;99.90;;;;;;5050431;28;20210;-77
2021/08/29 05:06:49;;;;;;;11.40;8.70;;;12.10;99.90;;;;;;5050345;28;20235;-77
2021/08/29 05:09:14;;;;;;;10.47;8.90;;;12.00;99.90;;;;;;5055353;28;20778;-77
2021/08/29 05:11:40;;;;;;;8.97;7.60;;;12.10;99.90;;;;;;5050251;28;20209;-77
2021/08/29 05:14:05;;;;;;;8.53;7.43;;;12.00;99.90;;;;;;5054412;28;20250;-77
2021/08/29 05:16:31;;;;;;;10.10;7.23;;;12.00;99.90;;;;;;5050652;28;20742;-77
2021/08/29 05:18:56;;;;;;;9.63;7.77;;;12.30;99.90;;;;;;5050352;28;20577;-77
2021/08/29 05:21:22;;;;;;;8.93;7.20;;;12.20;99.90;;;;;;5057661;28;20527;-77
2021/08/29 05:23:47;;;;;;;8.97;7.33;;;12.10;99.90;;;;;;5053200;28;20218;-77
2021/08/29 05:26:13;;;;;;;7.80;7.07;;;12.20;99.90;;;;;;5051824;28;20649;-78
2021/08/29 05:28:38;;;;;;;7.10;6.43;;;12.10;99.90;;;;;;5050422;28;20187;-78
2021/08/29 05:31:04;;;;;;;7.43;6.50;;;12.10;99.90;;;;;;5050745;28;20190;-78
2021/08/29 05:33:29;;;;;;;7.03;6.13;;;12.30;99.90;;;;;;5057933;28;20189;-78
2021/08/29 05:35:55;;;;;;;8.90;6.43;;;12.20;99.90;;;;;;5050229;28;20186;-78
2021/08/29 05:38:20;;;;;;;8.40;6.50;;;12.30;99.90;;;;;;5049784;28;20254;-77
2021/08/29 05:40:46;;;;;;;7.23;5.30;;;12.00;99.90;;;;;;5049931;28;20554;-78
2021/08/29 05:43:11;;;;;;;5.33;4.83;;;12.20;99.90;;;;;;5050534;28;20301;-78
2021/08/29 05:45:37;;;;;;;5.73;5.23;;;12.10;99.90;;;;;;5049932;28;20285;-78
2021/08/29 05:48:03;;;;;;;5.90;4.97;;;12.30;99.90;;;;;;5049542;28;20258;-79
2021/08/29 05:50:28;;;;;;;6.60;5.77;;;12.20;99.90;;;;;;5049510;28;20613;-78
2021/08/29 05:52:54;;;;;;;4.87;4.47;;;12.30;99.90;;;;;;5050006;28;20258;-78
2021/08/29 05:55:19;;;;;;;5.40;4.90;;;12.30;99.90;;;;;;5057335;28;20377;-79
2021/08/29 05:57:45;;;;;;;5.03;4.63;;;12.20;99.90;;;;;;5049516;28;20265;-79
2021/08/29 06:00:11;;;;;;;4.70;4.20;;;12.30;99.90;;;;;;5046091;28;20186;-78
2021/08/29 06:02:37;;;;;;;4.03;3.67;;;12.20;99.90;;;;;;5032184;28;20214;-80
2021/08/29 06:05:03;;;;;;;4.87;4.40;;;12.30;99.90;;;;;;5052880;28;20512;-79
2021/08/29 06:07:28;;;;;;;4.13;3.72;;;12.30;99.90;;;;;;5032278;28;20639;-79
2021/08/29 06:09:54;;;;;;;8.03;4.30;;;12.30;99.90;;;;;;5051218;28;20187;-81
2021/08/29 06:12:19;;;;;;;3.67;3.37;;;12.40;99.90;;;;;;5049353;28;20193;-80
2021/08/29 06:14:45;;;;;;;4.00;3.70;;;12.30;99.90;;;;;;5049540;28;20219;-80
2021/08/29 06:17:10;;;;;;;4.47;4.07;;;12.40;99.90;;;;;;5050438;28;20214;-80
2021/08/29 06:19:36;;;;;;;5.17;4.10;;;12.60;99.90;;;;;;5049394;28;20595;-81
2021/08/29 06:22:02;;;;;;;4.37;3.80;;;12.40;99.90;;;;;;5048760;28;20250;-82
2021/08/29 06:24:27;;;;;;;3.53;3.23;;;12.40;99.90;;;;;;5049684;28;20235;-83
2021/08/29 06:26:52;;;;;;;3.97;3.47;;;12.50;99.90;;;;;;5052873;28;20554;-83
2021/08/29 06:29:19;;;;;;;3.73;3.43;;;12.40;99.90;;;;;;5049785;28;20291;-82
2021/08/29 06:31:44;;;;;;;5.20;3.45;;;12.80;99.90;;;;;;5049149;28;20182;-81
2021/08/29 06:34:10;;;;;;;3.83;3.53;;;13.00;99.90;;;;;;5048987;28;20201;-81
2021/08/29 06:36:36;;;;;;;3.07;2.77;;;12.90;99.90;;;;;;5053163;28;20182;-81
2021/08/29 06:39:01;;;;;;;3.63;3.33;;;13.10;99.90;;;;;;5049528;28;20251;-82
2021/08/29 06:41:27;;;;;;;3.60;3.30;;;12.50;99.90;;;;;;5032458;28;20189;-82
2021/08/29 06:43:53;;;;;;;2.97;2.67;;;13.10;99.90;;;;;;5057709;28;20617;-81
2021/08/29 06:46:20;;;;;;;2.55;2.35;;;12.50;99.90;;;;;;5056451;28;20407;-81
2021/08/29 06:48:45;;;;;;;3.17;2.88;;;13.00;99.90;;;;;;5031901;28;20223;-82
2021/08/29 06:51:11;;;;;;;3.07;2.77;;;12.70;99.90;;;;;;5029659;28;20183;-82
2021/08/29 06:53:36;;;;;;;2.93;2.70;;;13.00;99.90;;;;;;5034748;28;20190;-83
2021/08/29 06:56:02;;;;;;;2.90;2.70;;;12.90;99.90;;;;;;5029053;28;20649;-81
2021/08/29 06:58:27;;;;;;;2.50;2.30;;;13.10;99.90;;;;;;5029451;28;20187;-81
2021/08/29 07:00:53;;;;;;;2.20;2.10;;;13.20;99.90;;;;;;5028557;28;20191;-80
2021/08/29 07:03:18;;;;;;;1.97;1.87;;;13.10;99.90;;;;;;5028780;28;20206;-80
2021/08/29 07:05:44;;;;;;;2.57;2.37;;;13.20;99.90;;;;;;5029146;28;20179;-80
2021/08/29 07:08:09;;;;;;;2.30;2.20;;;13.30;99.90;;;;;;5028854;28;20252;-80
2021/08/29 07:10:35;;;;;;;2.13;1.93;;;13.10;99.90;;;;;;5028998;28;20273;-80
2021/08/29 07:13:00;;;;;;;2.63;2.43;;;13.30;99.90;;;;;;5028906;28;20192;-80
2021/08/29 07:15:26;;;;;;;2.53;2.33;;;13.40;99.90;;;;;;5028914;28;20210;-79
2021/08/29 07:17:52;;;;;;;2.40;2.20;;;13.40;99.90;;;;;;5027293;28;20183;-79
2021/08/29 07:20:17;;;;;;;2.80;2.60;;;13.40;99.90;;;;;;5028590;28;20274;-79
2021/08/29 07:22:43;;;;;;;2.27;2.07;;;13.60;99.90;;;;;;5027455;28;20211;-80
2021/08/29 07:25:09;;;;;;;2.40;2.20;;;13.60;99.90;;;;;;5032067;28;20208;-78
2021/08/29 07:27:34;;;;;;;2.40;2.20;;;13.60;99.90;;;;;;5029380;28;20186;-81
2021/08/29 07:30:00;;;;;;;2.30;2.13;;;14.20;99.90;;;;;;5028590;28;20434;-80
2021/08/29 07:32:25;;;;;;;2.77;2.57;;;14.20;99.90;;;;;;5037722;28;20182;-81
2021/08/29 07:34:50;;;;;;;2.70;2.20;;;14.30;99.90;;;;;;5032653;28;20233;-81
2021/08/29 07:37:17;;;;;;;2.27;2.03;;;13.80;99.90;;;;;;5028594;28;20241;-82
2021/08/29 07:39:43;;;;;;;1.90;1.80;;;13.80;99.90;;;;;;5032854;28;20183;-81
2021/08/29 07:42:08;;;;;;;2.77;2.50;;;13.90;99.90;;;;;;5031583;28;21172;-81
2021/08/29 07:44:34;;;;;;;2.60;2.40;;;13.90;99.90;;;;;;5036051;28;20198;-82
2021/08/29 07:46:59;;;;;;;1.87;1.77;;;13.80;99.90;;;;;;5031095;28;20175;-81
2021/08/29 07:49:25;;;;;;;2.60;2.20;;;14.00;99.90;;;;;;5034812;28;20230;-80
2021/08/29 07:51:51;;;;;;;2.07;1.93;;;14.00;99.90;;;;;;5040753;28;20187;-80
2021/08/29 07:54:16;;;;;;;2.13;2.03;;;14.10;99.90;;;;;;5035950;28;20270;-80
2021/08/29 07:56:41;;;;;;;1.80;1.70;;;14.60;99.90;;;;;;5038540;28;20187;-80
2021/08/29 07:59:07;;;;;;;1.93;1.83;;;14.40;99.90;;;;;;5035614;28;20187;-80
2021/08/29 08:01:33;;;;;;;1.57;1.47;;;14.50;99.90;;;;;;5039941;28;20589;-81
2021/08/29 08:03:58;;;;;;;1.90;1.80;;;14.30;99.90;;;;;;5029685;28;20764;-81
2021/08/29 08:06:24;;;;;;;2.60;2.40;;;14.70;99.90;;;;;;5039478;28;20186;-82
2021/08/29 08:08:49;;;;;;;2.23;2.03;;;14.70;99.90;;;;;;5028492;28;20650;-82
2021/08/29 08:11:15;;;;;;;2.23;2.10;;;14.30;99.90;;;;;;5023144;28;20188;-81
2021/08/29 08:13:40;;;;;;;1.67;1.43;;;14.60;99.90;;;;;;5012077;28;20525;-81
2021/08/29 08:16:06;;;;;;;1.30;1.20;;;14.90;99.90;;;;;;5032648;28;20933;-82
2021/08/29 08:18:31;;;;;;;1.23;1.10;;;14.80;99.90;;;;;;5030703;28;20193;-82
2021/08/29 08:20:57;;;;;;;1.87;1.77;;;14.60;99.90;;;;;;5026739;28;20194;-82
2021/08/29 08:23:22;;;;;;;1.70;1.60;;;14.90;99.90;;;;;;5029625;28;20219;-81
2021/08/29 08:25:48;;;;;;;1.60;1.50;;;14.80;99.90;;;;;;5030923;28;20199;-81
2021/08/29 08:28:13;;;;;;;1.67;1.57;;;14.60;99.90;;;;;;5031774;28;20270;-82
2021/08/29 08:30:39;;;;;;;2.17;2.07;;;14.90;99.90;;;;;;5049993;28;20213;-79
2021/08/29 08:33:04;;;;;;;2.33;2.20;;;14.80;99.90;;;;;;5043258;28;20237;-79
2021/08/29 08:35:30;;;;;;;1.73;1.63;;;15.10;99.90;;;;;;5027767;28;20191;-79
2021/08/29 08:37:55;;;;;;;1.00;1.00;;;15.00;99.90;;;;;;5029423;28;20283;-80
2021/08/29 08:40:22;;;;;;;1.00;1.00;;;15.00;99.90;;;;;;5028943;28;20198;-79
2021/08/29 08:42:48;;;;;;;1.07;1.07;;;15.20;99.90;;;;;;5026413;28;20557;-80
2021/08/29 08:45:13;;;;;;;2.00;1.90;;;15.00;99.90;;;;;;5027658;28;20461;-79
2021/08/29 08:47:43;;;;;;;2.93;2.60;;;15.40;99.90;;;;;;5026060;28;20461;-89
2021/08/29 08:50:11;;;;;;;3.43;3.10;;;15.40;99.90;;;;;;5049414;28;20498;-92
2021/08/29 08:52:38;;;;;;;2.70;2.50;;;15.50;99.90;;;;;;5049300;28;20943;-96
2021/08/29 08:55:05;;;;;;;2.43;2.23;;;15.70;99.90;;;;;;5044831;28;20448;-78
2021/08/29 08:57:30;;;;;;;2.20;2.00;;;15.60;99.90;;;;;;5049997;28;20467;-79
2021/08/29 08:59:56;;;;;;;2.17;2.07;;;16.10;99.90;;;;;;5031314;28;20870;-77
2021/08/29 09:02:23;;;;;;;2.17;1.97;;;16.40;99.90;;;;;;5058260;28;20214;-77
2021/08/29 09:04:50;;;;;;;1.90;1.80;;;16.40;99.90;;;;;;5053200;28;20263;-78
2021/08/29 09:07:17;;;;;;;2.67;2.47;;;16.60;99.90;;;;;;5049067;28;20532;-77
2021/08/29 09:09:42;;;;;;;2.47;2.27;;;16.70;99.90;;;;;;5049882;28;20425;-77
2021/08/29 09:12:08;;;;;;;2.53;2.33;;;16.50;99.90;;;;;;5049117;28;20437;-77
2021/08/29 09:14:57;;;;;;;3.33;2.90;;;16.80;99.90;;;;;;5050308;28;20178;-78
2021/08/29 09:17:30;;;;;;;2.70;2.50;;;16.60;99.90;;;;;;5049389;28;20429;-77
2021/08/29 09:20:39;;;;;;;2.97;2.53;;;16.20;99.90;;;;;;5045432;28;20444;-76
2021/08/29 09:23:06;;;;;;;3.03;2.77;;;16.20;99.90;;;;;;4932598;29;20478;-76
2021/08/29 09:25:40;;;;;;;2.30;2.10;;;16.30;99.90;;;;;;5031586;28;20846;-77
2021/08/29 09:28:09;;;;;;;2.90;2.60;;;16.10;99.90;;;;;;5048679;28;20971;-75
2021/08/29 09:30:35;;;;;;;3.20;2.97;;;16.00;99.90;;;;;;5052903;28;20445;-75
2021/08/29 09:33:03;;;;;;;2.80;2.60;;;16.00;99.90;;;;;;5052891;28;20448;-88
2021/08/29 09:35:32;;;;;;;2.40;2.20;;;16.60;99.90;;;;;;5036801;28;20221;-76
2021/08/29 09:37:59;;;;;;;3.60;3.30;;;16.10;99.90;;;;;;5056287;28;20440;-75
2021/08/29 09:40:43;;;;;;;4.20;3.80;;;16.20;99.90;;;;;;5056230;28;20429;-74
2021/08/29 09:43:08;;;;;;;4.13;3.83;;;16.00;99.90;;;;;;5054224;28;20942;-75
2021/08/29 09:45:37;;;;;;;3.97;3.67;;;15.80;99.90;;;;;;5063962;28;20449;-96
2021/08/29 09:48:04;;;;;;;3.77;3.47;;;16.00;99.90;;;;;;5050507;28;20555;-76
2021/08/29 09:50:32;;;;;;;3.60;3.30;;;15.80;99.90;;;;;;5050640;28;21001;-76
2021/08/29 09:53:19;;;;;;;3.97;3.60;;;16.10;99.90;;;;;;5058547;28;20440;-76
2021/08/29 09:55:47;;;;;;;4.43;4.03;;;15.90;99.90;;;;;;5051454;28;20437;-76
2021/08/29 09:58:25;;;;;;;5.07;4.57;;;15.90;99.90;;;;;;5050497;28;20958;-73
2021/08/29 10:01:15;;;;;;;4.70;4.30;;;16.60;99.90;;;;;;5052588;28;20460;-76
2021/08/29 10:03:44;;;;;;;5.17;4.70;;;16.40;99.90;;;;;;5049676;28;20474;-76
2021/08/29 10:06:25;;;;;;;4.90;4.40;;;16.00;99.90;;;;;;5041556;28;20823;-74
2021/08/29 10:08:55;;;;;;;5.37;4.63;;;16.10;99.90;;;;;;5049406;28;20937;-79
2021/08/29 10:11:23;;;;;;;4.83;4.40;;;16.30;99.90;;;;;;5049662;28;20788;-77
2021/08/29 10:13:51;;;;;;;3.80;3.50;;;15.90;99.90;;;;;;5051715;28;20906;-75
2021/08/29 10:16:24;;;;;;;5.50;4.43;;;15.90;99.90;;;;;;5046144;28;20479;-77
2021/08/29 10:18:51;;;;;;;4.73;4.20;;;16.20;99.90;;;;;;5031422;28;20780;-77
2021/08/29 10:21:20;;;;;;;4.73;4.33;;;16.40;99.90;;;;;;5056350;28;20938;-77
2021/08/29 10:23:49;;;;;;;4.40;4.00;;;16.90;99.90;;;;;;5048890;28;20468;-77
2021/08/29 10:26:18;;;;;;;5.23;4.73;;;16.80;99.90;;;;;;5056900;28;20429;-75
2021/08/29 10:29:03;;;;;;;4.50;4.10;;;16.70;99.90;;;;;;5053167;28;20519;-76
2021/08/29 10:31:35;;;;;;;4.97;4.53;;;16.60;99.90;;;;;;5049389;28;20429;-75
2021/08/29 10:34:02;;;;;;;5.20;4.70;;;16.50;99.90;;;;;;5048811;28;20436;-76
2021/08/29 10:36:28;;;;;;;5.27;4.87;;;16.30;99.90;;;;;;5047572;28;20439;-77
2021/08/29 10:38:54;;;;;;;7.43;5.23;;;16.50;99.90;;;;;;5048449;28;20517;-76
2021/08/29 10:41:21;;;;;;;4.57;4.17;;;16.60;99.90;;;;;;5048707;28;20233;-77
2021/08/29 10:43:51;;;;;;;5.27;4.77;;;16.50;99.90;;;;;;5048113;28;20218;-77
2021/08/29 10:46:17;;;;;;;5.10;4.60;;;16.90;99.90;;;;;;5040383;28;20467;-78
2021/08/29 10:48:46;;;;;;;4.93;4.53;;;17.00;99.90;;;;;;5048346;28;20496;-76
2021/08/29 10:51:15;;;;;;;4.97;4.57;;;17.20;99.90;;;;;;5047709;28;20433;-77
2021/08/29 10:53:42;;;;;;;4.77;4.37;;;16.90;99.90;;;;;;5048018;28;21066;-77
2021/08/29 10:56:17;;;;;;;4.97;4.57;;;16.60;99.90;;;;;;5048486;28;20809;-77
2021/08/29 10:59:08;;;;;;;4.50;4.20;;;17.00;99.90;;;;;;5048669;28;20529;-77
2021/08/29 11:01:38;;;;;;;4.30;3.90;;;17.10;99.90;;;;;;5009513;28;20449;-77
2021/08/29 11:04:22;;;;;;;4.77;4.37;;;17.20;99.90;;;;;;5048058;28;20876;-76
2021/08/29 11:06:55;;;;;;;3.80;3.50;;;17.30;99.90;;;;;;5047796;28;20520;-77
2021/08/29 11:09:34;;;;;;;3.93;3.63;;;17.50;99.90;;;;;;5047749;28;20429;-77
2021/08/29 11:12:00;;;;;;;4.23;3.93;;;17.90;99.90;;;;;;5048284;28;20434;-78
2021/08/29 11:14:52;;;;;;;3.83;3.47;;;17.30;99.90;;;;;;5047983;28;20419;-78
2021/08/29 11:17:26;;;;;;;3.80;3.50;;;17.20;99.90;;;;;;5047819;28;20427;-77
2021/08/29 11:20:02;;;;;;;4.40;4.00;;;17.80;99.90;;;;;;5048537;28;20516;-76
2021/08/29 11:22:41;;;;;;;4.50;4.10;;;17.70;99.90;;;;;;5032906;28;20466;-77
2021/08/29 11:25:23;;;;;;;4.10;3.83;;;18.10;99.90;;;;;;5047799;28;20436;-76
2021/08/29 11:27:55;;;;;;;3.90;3.70;;;17.80;99.90;;;;;;5024660;28;20421;-77
2021/08/29 11:30:41;;;;;;;3.63;3.33;;;17.70;99.90;;;;;;5047611;28;20930;-77
2021/08/29 11:33:24;;;;;;;3.13;2.93;;;17.30;99.90;;;;;;5047499;28;20555;-76
2021/08/29 11:35:51;;;;;;;4.60;4.17;;;17.10;99.90;;;;;;5042269;28;20873;-77
2021/08/29 11:38:36;;;;;;;4.10;3.80;;;17.00;99.90;;;;;;5056584;28;20428;-77
2021/08/29 11:41:12;;;;;;;4.50;4.20;;;17.00;99.90;;;;;;5047239;28;20444;-77
2021/08/29 11:43:42;;;;;;;4.60;4.20;;;17.20;99.90;;;;;;5048161;28;20546;-77
2021/08/29 11:46:17;;;;;;;5.50;5.00;;;16.60;99.90;;;;;;5048049;28;20511;-77
2021/08/29 11:48:59;;;;;;;4.87;4.47;;;17.00;99.90;;;;;;5044140;28;20468;-77
2021/08/29 11:51:30;;;;;;;4.50;4.20;;;17.10;99.90;;;;;;5052240;28;20436;-78
2021/08/29 11:53:56;;;;;;;5.30;4.90;;;17.30;99.90;;;;;;5051988;28;20433;-77
2021/08/29 11:56:27;;;;;;;5.20;4.77;;;18.00;99.90;;;;;;5051746;28;20434;-77
2021/08/29 11:58:53;;;;;;;4.90;4.50;;;18.30;99.90;;;;;;5051287;28;20440;-77
2021/08/29 12:01:19;;;;;;;3.87;3.60;;;18.20;99.90;;;;;;5051758;28;20480;-77
2021/08/29 12:03:48;;;;;;;4.43;4.00;;;18.10;99.90;;;;;;5034301;28;20468;-78
2021/08/29 12:06:29;;;;;;;4.23;3.93;;;18.50;99.90;;;;;;5033948;28;20192;-78
2021/08/29 12:09:22;;;;;;;4.40;4.10;;;18.10;99.90;;;;;;5044952;28;20423;-76
2021/08/29 12:11:49;;;;;;;4.27;3.90;;;17.80;99.90;;;;;;5051543;28;20789;-76
2021/08/29 12:14:18;;;;;;;5.00;4.60;;;17.40;99.90;;;;;;5051320;28;20440;-76
2021/08/29 12:16:47;;;;;;;4.03;3.70;;;17.20;99.90;;;;;;5051234;28;20529;-76
2021/08/29 12:19:15;;;;;;;3.63;3.43;;;17.70;99.90;;;;;;5040222;28;20429;-76
2021/08/29 12:21:43;;;;;;;3.80;3.60;;;17.80;99.90;;;;;;5058760;28;20436;-77
2021/08/29 12:24:10;;;;;;;3.80;3.50;;;17.70;99.90;;;;;;5032844;28;20471;-76
2021/08/29 12:26:37;;;;;;;3.80;3.50;;;17.60;99.90;;;;;;5050674;28;20434;-76
2021/08/29 12:29:05;;;;;;;4.10;3.80;;;17.70;99.90;;;;;;5051458;28;20476;-77
2021/08/29 12:31:36;;;;;;;4.53;4.10;;;17.70;99.90;;;;;;5058697;28;20433;-76
2021/08/29 12:34:02;;;;;;;4.50;4.20;;;17.60;99.90;;;;;;5050978;28;20440;-76
2021/08/29 12:36:28;;;;;;;3.90;3.60;;;17.40;99.90;;;;;;5051154;28;20429;-76
2021/08/29 12:38:54;;;;;;;3.73;3.43;;;17.40;99.90;;;;;;5051272;28;20432;-76
2021/08/29 12:41:19;;;;;;;4.93;4.43;;;17.40;99.90;;;;;;5050649;28;20506;-76
2021/08/29 12:43:45;;;;;;;4.30;3.90;;;17.30;99.90;;;;;;5050900;28;20249;-76
2021/08/29 12:46:11;;;;;;;3.60;3.30;;;17.10;99.90;;;;;;5050964;28;20197;-77
2021/08/29 12:48:38;;;;;;;4.23;3.93;;;17.00;99.90;;;;;;5050606;28;20239;-76
2021/08/29 12:51:07;;;;;;;3.20;3.00;;;16.70;99.90;;;;;;5050760;28;20233;-76